createdAt,value
2022-12-20T00:00:09.017Z,12.47
2022-12-20T00:01:09.010Z,12.52
2022-12-20T00:02:09.099Z,12.54
2022-12-20T00:03:08.980Z,12.60
2022-12-20T00:04:08.964Z,12.57
2022-12-20T00:05:08.932Z,12.56
2022-12-20T00:06:09.009Z,12.54
2022-12-20T00:07:08.942Z,12.53
2022-12-20T00:08:08.919Z,12.60
2022-12-20T00:09:08.904Z,12.62
2022-12-20T00:10:08.907Z,12.64
2022-12-20T00:11:08.885Z,12.65
2022-12-20T00:12:08.925Z,12.67
2022-12-20T00:13:08.887Z,12.60
2022-12-20T00:14:08.850Z,12.56
2022-12-20T00:15:08.815Z,12.68
2022-12-20T00:16:08.818Z,12.65
2022-12-20T00:17:08.815Z,12.67
2022-12-20T00:18:08.991Z,12.68
2022-12-20T00:19:08.792Z,12.68
2022-12-20T00:20:08.886Z,12.62
2022-12-20T00:21:08.766Z,12.56
2022-12-20T00:22:08.767Z,12.56
2022-12-20T00:23:08.729Z,12.53
2022-12-20T00:24:08.807Z,12.49
2022-12-20T00:25:08.734Z,12.39
2022-12-20T00:26:08.746Z,12.31
2022-12-20T00:27:08.686Z,12.23
2022-12-20T00:28:08.711Z,12.17
2022-12-20T00:29:08.671Z,12.12
2022-12-20T00:30:08.956Z,12.05
2022-12-20T00:31:08.704Z,12.04
2022-12-20T00:32:08.709Z,12.01
2022-12-20T00:33:08.626Z,11.96
2022-12-20T00:34:08.690Z,11.91
2022-12-20T00:35:08.598Z,11.83
2022-12-20T00:36:08.609Z,11.79
2022-12-20T00:37:08.594Z,11.73
2022-12-20T00:38:08.583Z,11.70
2022-12-20T00:39:08.552Z,11.65
2022-12-20T00:40:08.550Z,11.64
2022-12-20T00:41:08.532Z,11.60
2022-12-20T00:42:08.605Z,11.57
2022-12-20T00:43:08.533Z,11.54
2022-12-20T00:44:08.539Z,11.52
2022-12-20T00:45:08.489Z,11.49
2022-12-20T00:46:08.514Z,11.47
2022-12-20T00:47:08.574Z,11.47
2022-12-20T00:48:08.658Z,11.49
2022-12-20T00:49:08.447Z,11.51
2022-12-20T00:50:08.502Z,11.49
2022-12-20T00:51:08.426Z,11.58
2022-12-20T00:52:08.545Z,11.67
2022-12-20T00:53:08.401Z,11.67
2022-12-20T00:54:08.553Z,11.69
2022-12-20T00:55:08.386Z,11.69
2022-12-20T00:56:08.384Z,11.76
2022-12-20T00:57:08.363Z,11.85
2022-12-20T00:58:08.359Z,11.85
2022-12-20T00:59:08.331Z,11.83
2022-12-20T01:00:08.395Z,11.76
2022-12-20T01:01:08.338Z,11.75
2022-12-20T01:02:08.574Z,11.69
2022-12-20T01:03:08.425Z,11.65
2022-12-20T01:04:08.287Z,11.61
2022-12-20T01:05:08.301Z,11.57
2022-12-20T01:06:08.298Z,11.54
2022-12-20T01:07:08.265Z,11.54
2022-12-20T01:08:08.387Z,11.47
2022-12-20T01:09:08.221Z,11.43
2022-12-20T01:10:08.255Z,11.37
2022-12-20T01:11:08.207Z,11.32
2022-12-20T01:12:08.240Z,11.24
2022-12-20T01:13:08.181Z,11.19
2022-12-20T01:14:08.228Z,11.15
2022-12-20T01:15:08.158Z,11.10
2022-12-20T01:16:08.270Z,11.04
2022-12-20T01:17:08.138Z,10.97
2022-12-20T01:18:08.157Z,10.91
2022-12-20T01:19:08.156Z,10.89
2022-12-20T01:20:08.149Z,10.84
2022-12-20T01:21:08.095Z,10.84
2022-12-20T01:22:08.161Z,10.81
2022-12-20T01:23:08.069Z,10.76
2022-12-20T01:24:08.174Z,10.71
2022-12-20T01:25:08.088Z,10.66
2022-12-20T01:26:08.141Z,10.61
2022-12-20T01:27:08.031Z,10.59
2022-12-20T01:28:08.073Z,10.53
2022-12-20T01:29:08.001Z,10.51
2022-12-20T01:30:08.013Z,10.45
2022-12-20T01:31:07.986Z,10.42
2022-12-20T01:32:08.102Z,10.40
2022-12-20T01:33:07.963Z,10.40
2022-12-20T01:34:07.992Z,10.38
2022-12-20T01:35:07.961Z,10.33
2022-12-20T01:36:08.089Z,10.32
2022-12-20T01:37:07.960Z,10.32
2022-12-20T01:38:07.982Z,10.27
2022-12-20T01:39:07.887Z,10.27
2022-12-20T01:40:07.901Z,10.25
2022-12-20T01:41:07.884Z,10.27
2022-12-20T01:42:07.923Z,10.29
2022-12-20T01:43:07.852Z,10.30
2022-12-20T01:44:07.894Z,10.30
2022-12-20T01:45:07.824Z,10.30
2022-12-20T01:46:07.880Z,10.36
2022-12-20T01:47:07.814Z,10.36
2022-12-20T01:48:07.818Z,10.40
2022-12-20T01:49:07.800Z,10.47
2022-12-20T01:50:07.842Z,10.48
2022-12-20T01:51:07.764Z,10.48
2022-12-20T01:52:07.807Z,10.52
2022-12-20T01:53:07.738Z,10.53
2022-12-20T01:54:07.785Z,10.53
2022-12-20T01:55:07.733Z,10.55
2022-12-20T01:56:07.723Z,10.59
2022-12-20T01:57:07.716Z,10.61
2022-12-20T01:58:07.764Z,10.61
2022-12-20T01:59:07.680Z,10.63
2022-12-20T02:00:07.669Z,10.64
2022-12-20T02:01:07.721Z,10.64
2022-12-20T02:02:07.922Z,10.63
2022-12-20T02:03:07.720Z,10.64
2022-12-20T02:04:07.664Z,10.67
2022-12-20T02:05:07.605Z,10.64
2022-12-20T02:06:07.688Z,10.66
2022-12-20T02:07:07.597Z,10.66
2022-12-20T02:08:07.595Z,10.67
2022-12-20T02:09:07.567Z,10.71
2022-12-20T02:10:07.814Z,10.71
2022-12-20T02:11:07.562Z,10.70
2022-12-20T02:12:07.628Z,10.68
2022-12-20T02:13:07.532Z,10.67
2022-12-20T02:14:07.529Z,10.67
2022-12-20T02:15:07.489Z,10.66
2022-12-20T02:16:07.602Z,10.64
2022-12-20T02:17:07.536Z,10.63
2022-12-20T02:18:08.456Z,10.61
2022-12-20T02:19:07.449Z,10.63
2022-12-20T02:20:07.507Z,10.60
2022-12-20T02:21:07.438Z,10.59
2022-12-20T02:22:07.428Z,10.55
2022-12-20T02:23:07.476Z,10.53
2022-12-20T02:24:07.430Z,10.52
2022-12-20T02:25:07.401Z,10.48
2022-12-20T02:26:07.520Z,10.45
2022-12-20T02:27:07.362Z,10.42
2022-12-20T02:28:07.419Z,10.38
2022-12-20T02:29:07.367Z,10.32
2022-12-20T02:30:07.449Z,10.26
2022-12-20T02:31:07.321Z,10.22
2022-12-20T02:32:07.401Z,10.18
2022-12-20T02:33:07.311Z,10.17
2022-12-20T02:34:07.351Z,10.12
2022-12-20T02:35:07.272Z,10.08
2022-12-20T02:36:07.291Z,10.07
2022-12-20T02:37:07.252Z,10.02
2022-12-20T02:38:07.273Z,9.99
2022-12-20T02:39:07.253Z,9.96
2022-12-20T02:40:07.282Z,9.93
2022-12-20T02:41:07.214Z,9.94
2022-12-20T02:42:07.355Z,9.93
2022-12-20T02:43:07.203Z,9.96
2022-12-20T02:44:07.210Z,9.97
2022-12-20T02:45:07.167Z,9.97
2022-12-20T02:46:07.288Z,9.93
2022-12-20T02:47:07.135Z,9.89
2022-12-20T02:48:07.173Z,9.87
2022-12-20T02:49:07.112Z,9.79
2022-12-20T02:50:07.156Z,9.75
2022-12-20T02:51:07.100Z,9.71
2022-12-20T02:52:07.094Z,9.68
2022-12-20T02:53:07.098Z,9.64
2022-12-20T02:54:07.100Z,9.57
2022-12-20T02:55:07.046Z,9.54
2022-12-20T02:56:07.128Z,9.51
2022-12-20T02:57:07.022Z,9.51
2022-12-20T02:58:07.037Z,9.51
2022-12-20T02:59:07.005Z,9.51
2022-12-20T03:00:07.077Z,9.53
2022-12-20T03:01:07.016Z,9.54
2022-12-20T03:02:07.163Z,9.51
2022-12-20T03:03:07.060Z,9.53
2022-12-20T03:04:07.017Z,9.50
2022-12-20T03:05:06.947Z,9.50
2022-12-20T03:06:06.948Z,9.48
2022-12-20T03:07:06.920Z,9.51
2022-12-20T03:08:07.142Z,9.57
2022-12-20T03:09:06.909Z,9.60
2022-12-20T03:10:06.949Z,9.69
2022-12-20T03:11:06.886Z,9.71
2022-12-20T03:12:06.902Z,9.71
2022-12-20T03:13:06.872Z,9.71
2022-12-20T03:14:06.970Z,9.74
2022-12-20T03:15:06.832Z,9.74
2022-12-20T03:16:06.948Z,9.76
2022-12-20T03:17:06.937Z,9.84
2022-12-20T03:18:06.908Z,9.87
2022-12-20T03:19:06.808Z,9.96
2022-12-20T03:20:06.879Z,9.94
2022-12-20T03:21:06.769Z,10.02
2022-12-20T03:22:06.783Z,10.01
2022-12-20T03:23:06.785Z,10.01
2022-12-20T03:24:06.791Z,10.02
2022-12-20T03:25:06.734Z,10.04
2022-12-20T03:26:06.906Z,10.05
2022-12-20T03:27:06.724Z,10.05
2022-12-20T03:28:06.732Z,10.07
2022-12-20T03:29:06.686Z,10.05
2022-12-20T03:30:06.703Z,10.09
2022-12-20T03:31:06.827Z,10.08
2022-12-20T03:32:06.682Z,10.07
2022-12-20T03:33:06.651Z,10.05
2022-12-20T03:34:06.631Z,10.02
2022-12-20T03:35:06.625Z,10.04
2022-12-20T03:36:06.683Z,10.02
2022-12-20T03:37:06.600Z,10.01
2022-12-20T03:38:06.629Z,10.12
2022-12-20T03:39:06.600Z,10.12
2022-12-20T03:40:06.573Z,10.14
2022-12-20T03:41:06.551Z,10.14
2022-12-20T03:42:06.761Z,10.15
2022-12-20T03:43:06.537Z,10.22
2022-12-20T03:44:06.627Z,10.25
2022-12-20T03:45:06.509Z,10.27
2022-12-20T03:46:06.571Z,10.30
2022-12-20T03:47:06.485Z,10.32
2022-12-20T03:48:06.558Z,10.34
2022-12-20T03:49:06.464Z,10.34
2022-12-20T03:50:06.553Z,10.33
2022-12-20T03:51:06.445Z,10.33
2022-12-20T03:52:06.488Z,10.34
2022-12-20T03:53:06.445Z,10.30
2022-12-20T03:54:06.448Z,10.38
2022-12-20T03:55:06.397Z,10.36
2022-12-20T03:56:06.477Z,10.42
2022-12-20T03:57:06.367Z,10.44
2022-12-20T03:58:06.393Z,10.47
2022-12-20T03:59:06.357Z,10.45
2022-12-20T04:00:06.493Z,10.42
2022-12-20T04:01:06.395Z,10.42
2022-12-20T04:02:06.491Z,10.47
2022-12-20T04:03:06.547Z,10.45
2022-12-20T04:04:06.345Z,10.51
2022-12-20T04:05:06.293Z,10.52
2022-12-20T04:06:06.377Z,10.51
2022-12-20T04:07:06.259Z,10.51
2022-12-20T04:08:06.393Z,10.55
2022-12-20T04:09:06.243Z,10.53
2022-12-20T04:10:06.310Z,10.56
2022-12-20T04:11:06.222Z,10.56
2022-12-20T04:12:06.273Z,10.55
2022-12-20T04:13:06.191Z,10.55
2022-12-20T04:14:06.338Z,10.52
2022-12-20T04:15:06.197Z,10.51
2022-12-20T04:16:06.274Z,10.52
2022-12-20T04:17:06.173Z,10.51
2022-12-20T04:18:06.243Z,10.47
2022-12-20T04:19:06.134Z,10.48
2022-12-20T04:20:06.161Z,10.51
2022-12-20T04:21:06.112Z,10.52
2022-12-20T04:22:06.528Z,10.51
2022-12-20T04:23:06.090Z,10.48
2022-12-20T04:24:06.223Z,10.48
2022-12-20T04:25:06.053Z,10.47
2022-12-20T04:26:06.064Z,10.48
2022-12-20T04:27:06.052Z,10.48
2022-12-20T04:28:06.085Z,10.48
2022-12-20T04:29:06.032Z,10.48
2022-12-20T04:30:06.070Z,10.45
2022-12-20T04:31:06.023Z,10.45
2022-12-20T04:32:05.985Z,10.45
2022-12-20T04:33:05.986Z,10.48
2022-12-20T04:34:06.028Z,10.44
2022-12-20T04:35:05.945Z,10.44
2022-12-20T04:36:06.012Z,10.45
2022-12-20T04:37:05.928Z,10.45
2022-12-20T04:38:05.994Z,10.45
2022-12-20T04:39:05.925Z,10.42
2022-12-20T04:40:05.970Z,10.40
2022-12-20T04:41:05.895Z,10.38
2022-12-20T04:42:05.918Z,10.36
2022-12-20T04:43:05.865Z,10.41
2022-12-20T04:44:05.870Z,10.48
2022-12-20T04:45:05.865Z,10.47
2022-12-20T04:46:05.912Z,10.47
2022-12-20T04:47:05.844Z,10.47
2022-12-20T04:48:37.051Z,10.47
2022-12-20T04:49:06.799Z,10.51
2022-12-20T04:50:05.901Z,10.53
2022-12-20T04:51:05.775Z,10.55
2022-12-20T04:52:05.884Z,10.53
2022-12-20T04:53:05.776Z,10.55
2022-12-20T04:54:05.797Z,10.55
2022-12-20T04:55:05.742Z,10.55
2022-12-20T04:56:05.718Z,10.59
2022-12-20T04:57:05.703Z,10.63
2022-12-20T04:58:07.880Z,10.66
2022-12-20T04:59:05.696Z,10.68
2022-12-20T05:00:05.733Z,10.70
2022-12-20T05:01:05.663Z,10.70
2022-12-20T05:02:05.800Z,10.71
2022-12-20T05:03:05.910Z,10.74
2022-12-20T05:04:05.668Z,10.71
2022-12-20T05:05:05.725Z,10.71
2022-12-20T05:06:05.635Z,10.71
2022-12-20T05:07:05.598Z,10.73
2022-12-20T05:08:05.603Z,10.74
2022-12-20T05:09:05.874Z,10.78
2022-12-20T05:10:05.578Z,10.74
2022-12-20T05:11:05.549Z,10.76
2022-12-20T05:12:05.556Z,10.81
2022-12-20T05:13:09.173Z,10.82
2022-12-20T05:14:05.552Z,10.84
2022-12-20T05:15:05.520Z,10.84
2022-12-20T05:16:05.615Z,10.82
2022-12-20T05:17:05.476Z,10.79
2022-12-20T05:18:05.494Z,10.82
2022-12-20T05:19:05.464Z,10.82
2022-12-20T05:20:05.484Z,10.79
2022-12-20T05:21:05.423Z,10.78
2022-12-20T05:22:05.505Z,10.78
2022-12-20T05:23:05.399Z,10.78
2022-12-20T05:24:05.465Z,10.79
2022-12-20T05:25:05.386Z,10.84
2022-12-20T05:26:05.384Z,10.82
2022-12-20T05:27:05.374Z,10.82
2022-12-20T05:28:05.404Z,10.82
2022-12-20T05:29:05.361Z,10.85
2022-12-20T05:30:05.336Z,10.82
2022-12-20T05:31:05.340Z,10.79
2022-12-20T05:32:05.360Z,10.74
2022-12-20T05:33:05.334Z,10.71
2022-12-20T05:34:05.307Z,10.73
2022-12-20T05:35:05.310Z,10.74
2022-12-20T05:36:05.268Z,10.73
2022-12-20T05:37:05.239Z,10.73
2022-12-20T05:38:05.246Z,10.74
2022-12-20T05:39:05.276Z,10.73
2022-12-20T05:40:05.224Z,10.71
2022-12-20T05:41:05.207Z,10.68
2022-12-20T05:42:05.198Z,10.70
2022-12-20T05:43:05.179Z,10.70
2022-12-20T05:44:05.199Z,10.68
2022-12-20T05:45:05.183Z,10.67
2022-12-20T05:46:05.348Z,10.67
2022-12-20T05:47:05.223Z,10.64
2022-12-20T05:48:05.141Z,10.63
2022-12-20T05:49:05.110Z,10.61
2022-12-20T05:50:05.127Z,10.64
2022-12-20T05:51:05.206Z,10.63
2022-12-20T05:52:05.078Z,10.61
2022-12-20T05:53:11.235Z,10.60
2022-12-20T05:54:06.128Z,10.60
2022-12-20T05:55:05.049Z,10.56
2022-12-20T05:56:05.048Z,10.56
2022-12-20T05:57:05.022Z,10.60
2022-12-20T05:58:05.021Z,10.60
2022-12-20T05:59:05.000Z,10.60
2022-12-20T06:00:04.992Z,10.59
2022-12-20T06:01:04.971Z,10.59
2022-12-20T06:02:05.203Z,10.61
2022-12-20T06:03:05.137Z,10.61
2022-12-20T06:04:05.007Z,10.60
2022-12-20T06:05:05.002Z,10.59
2022-12-20T06:06:10.182Z,10.56
2022-12-20T06:07:05.901Z,10.56
2022-12-20T06:08:04.950Z,10.55
2022-12-20T06:09:04.884Z,10.53
2022-12-20T06:10:04.934Z,10.52
2022-12-20T06:11:04.899Z,10.52
2022-12-20T06:12:04.880Z,10.51
2022-12-20T06:13:04.957Z,10.51
2022-12-20T06:14:04.849Z,10.48
2022-12-20T06:15:04.871Z,10.52
2022-12-20T06:16:04.934Z,10.52
2022-12-20T06:17:04.807Z,10.51
2022-12-20T06:18:04.823Z,10.48
2022-12-20T06:19:04.792Z,10.48
2022-12-20T06:20:04.816Z,10.47
2022-12-20T06:21:04.780Z,10.48
2022-12-20T06:22:04.777Z,10.45
2022-12-20T06:23:04.735Z,10.44
2022-12-20T06:24:04.739Z,10.42
2022-12-20T06:25:04.736Z,10.44
2022-12-20T06:26:04.699Z,10.45
2022-12-20T06:27:04.718Z,10.44
2022-12-20T06:28:04.676Z,10.42
2022-12-20T06:29:04.724Z,10.40
2022-12-20T06:30:04.775Z,10.40
2022-12-20T06:31:04.665Z,10.38
2022-12-20T06:32:04.712Z,10.36
2022-12-20T06:33:04.631Z,10.38
2022-12-20T06:34:04.620Z,10.36
2022-12-20T06:35:04.634Z,10.38
2022-12-20T06:36:04.640Z,10.38
2022-12-20T06:37:04.598Z,10.38
2022-12-20T06:38:04.577Z,10.40
2022-12-20T06:39:09.458Z,10.40
2022-12-20T06:40:05.621Z,10.41
2022-12-20T06:41:04.550Z,10.42
2022-12-20T06:42:04.547Z,10.44
2022-12-20T06:43:04.523Z,10.44
2022-12-20T06:44:04.635Z,10.47
2022-12-20T06:45:04.633Z,10.51
2022-12-20T06:46:05.800Z,10.51
2022-12-20T06:47:04.487Z,10.48
2022-12-20T06:48:04.948Z,10.48
2022-12-20T06:49:04.465Z,10.51
2022-12-20T06:50:05.413Z,10.53
2022-12-20T06:51:04.439Z,10.53
2022-12-20T06:52:04.431Z,10.53
2022-12-20T06:53:04.411Z,10.61
2022-12-20T06:54:04.402Z,10.59
2022-12-20T06:55:04.402Z,10.56
2022-12-20T06:56:04.398Z,10.56
2022-12-20T06:57:04.369Z,10.56
2022-12-20T06:58:04.416Z,10.55
2022-12-20T06:59:04.353Z,10.53
2022-12-20T07:00:04.404Z,10.51
2022-12-20T07:01:04.444Z,10.48
2022-12-20T07:02:05.386Z,10.51
2022-12-20T07:03:04.458Z,10.47
2022-12-20T07:04:04.357Z,10.42
2022-12-20T07:05:04.299Z,10.41
2022-12-20T07:06:04.273Z,10.41
2022-12-20T07:07:04.273Z,10.41
2022-12-20T07:08:04.294Z,10.45
2022-12-20T07:09:04.245Z,10.47
2022-12-20T07:10:04.294Z,10.47
2022-12-20T07:11:04.227Z,10.51
2022-12-20T07:12:04.207Z,10.56
2022-12-20T07:13:04.216Z,10.55
2022-12-20T07:14:04.206Z,10.59
2022-12-20T07:15:04.194Z,10.56
2022-12-20T07:16:04.270Z,10.55
2022-12-20T07:17:04.240Z,10.55
2022-12-20T07:18:04.259Z,10.59
2022-12-20T07:19:04.161Z,10.60
2022-12-20T07:20:07.684Z,10.59
2022-12-20T07:21:05.121Z,10.60
2022-12-20T07:22:04.407Z,10.63
2022-12-20T07:23:04.332Z,10.63
2022-12-20T07:24:04.212Z,10.63
2022-12-20T07:25:04.092Z,10.61
2022-12-20T07:26:04.248Z,10.63
2022-12-20T07:27:04.194Z,10.66
2022-12-20T07:28:04.079Z,10.66
2022-12-20T07:29:04.091Z,10.67
2022-12-20T07:30:04.020Z,10.68
2022-12-20T07:31:04.009Z,10.67
2022-12-20T07:32:04.071Z,10.73
2022-12-20T07:33:03.992Z,10.78
2022-12-20T07:34:04.032Z,10.78
2022-12-20T07:35:04.015Z,10.81
2022-12-20T07:36:04.107Z,10.89
2022-12-20T07:37:03.953Z,10.94
2022-12-20T07:38:03.948Z,10.96
2022-12-20T07:39:03.940Z,10.94
2022-12-20T07:40:03.980Z,10.97
2022-12-20T07:41:03.909Z,11.04
2022-12-20T07:42:03.937Z,11.06
2022-12-20T07:43:03.885Z,11.02
2022-12-20T07:44:03.879Z,11.02
2022-12-20T07:45:03.890Z,11.07
2022-12-20T07:46:03.958Z,11.09
2022-12-20T07:47:03.849Z,11.14
2022-12-20T07:48:11.166Z,11.09
2022-12-20T07:49:04.878Z,11.04
2022-12-20T07:50:03.816Z,11.04
2022-12-20T07:51:03.803Z,11.04
2022-12-20T07:52:03.852Z,11.03
2022-12-20T07:53:03.777Z,11.02
2022-12-20T07:54:03.757Z,11.04
2022-12-20T07:55:03.796Z,11.06
2022-12-20T07:56:03.813Z,11.09
2022-12-20T07:57:03.714Z,11.09
2022-12-20T07:58:03.703Z,11.09
2022-12-20T07:59:03.704Z,11.07
2022-12-20T08:00:03.702Z,11.07
2022-12-20T08:01:03.745Z,11.10
2022-12-20T08:02:05.091Z,11.14
2022-12-20T08:03:03.772Z,11.14
2022-12-20T08:04:03.706Z,11.15
2022-12-20T08:05:03.638Z,11.19
2022-12-20T08:06:03.620Z,11.19
2022-12-20T08:07:03.826Z,11.18
2022-12-20T08:08:03.637Z,11.19
2022-12-20T08:09:03.616Z,11.17
2022-12-20T08:10:07.587Z,11.17
2022-12-20T08:11:03.571Z,11.17
2022-12-20T08:12:03.588Z,11.18
2022-12-20T08:13:03.536Z,11.17
2022-12-20T08:14:03.548Z,11.18
2022-12-20T08:15:03.530Z,11.18
2022-12-20T08:16:03.626Z,11.19
2022-12-20T08:17:03.585Z,11.22
2022-12-20T08:18:03.523Z,11.24
2022-12-20T08:19:03.495Z,11.28
2022-12-20T08:20:03.531Z,11.29
2022-12-20T08:21:03.491Z,11.32
2022-12-20T08:22:03.448Z,11.36
2022-12-20T08:23:03.453Z,11.37
2022-12-20T08:24:03.440Z,11.40
2022-12-20T08:25:03.395Z,11.42
2022-12-20T08:26:03.446Z,11.39
2022-12-20T08:27:03.380Z,11.39
2022-12-20T08:28:03.370Z,11.36
2022-12-20T08:29:03.361Z,11.36
2022-12-20T08:30:03.394Z,11.40
2022-12-20T08:31:03.425Z,11.40
2022-12-20T08:32:03.342Z,11.44
2022-12-20T08:33:03.312Z,11.44
2022-12-20T08:34:03.343Z,11.46
2022-12-20T08:35:03.287Z,11.43
2022-12-20T08:36:03.458Z,11.40
2022-12-20T08:37:06.593Z,11.39
2022-12-20T08:38:04.261Z,11.36
2022-12-20T08:39:03.477Z,11.33
2022-12-20T08:40:03.807Z,11.29
2022-12-20T08:41:03.225Z,11.29
2022-12-20T08:42:03.231Z,11.29
2022-12-20T08:43:08.386Z,11.28
2022-12-20T08:44:04.221Z,11.27
2022-12-20T08:45:03.185Z,11.21
2022-12-20T08:46:03.235Z,11.19
2022-12-20T08:47:03.153Z,11.21
2022-12-20T08:48:03.204Z,11.21
2022-12-20T08:49:03.124Z,11.22
2022-12-20T08:50:03.157Z,11.24
2022-12-20T08:51:03.159Z,11.27
2022-12-20T08:52:03.145Z,11.32
2022-12-20T08:53:03.106Z,11.33
2022-12-20T08:54:03.470Z,11.33
2022-12-20T08:55:05.214Z,11.35
2022-12-20T08:56:03.064Z,11.35
2022-12-20T08:57:03.043Z,11.35
2022-12-20T08:58:03.058Z,11.33
2022-12-20T08:59:03.017Z,11.32
2022-12-20T09:00:03.255Z,11.32
2022-12-20T09:01:06.432Z,11.29
2022-12-20T09:02:03.089Z,11.29
2022-12-20T09:03:03.246Z,11.28
2022-12-20T09:04:03.095Z,11.28
2022-12-20T09:05:02.947Z,11.29
2022-12-20T09:06:03.049Z,11.28
2022-12-20T09:07:02.944Z,11.29
2022-12-20T09:08:02.987Z,11.29
2022-12-20T09:09:02.916Z,11.32
2022-12-20T09:10:02.940Z,11.33
2022-12-20T09:11:02.889Z,11.29
2022-12-20T09:12:03.232Z,11.28
2022-12-20T09:13:02.860Z,11.28
2022-12-20T09:14:03.008Z,11.27
2022-12-20T09:15:02.855Z,11.25
2022-12-20T09:16:02.905Z,11.25
2022-12-20T09:17:02.837Z,11.28
2022-12-20T09:18:02.816Z,11.27
2022-12-20T09:19:05.933Z,11.28
2022-12-20T09:20:02.831Z,11.29
2022-12-20T09:21:02.874Z,11.33
2022-12-20T09:22:03.486Z,11.39
2022-12-20T09:23:02.815Z,11.42
2022-12-20T09:24:02.827Z,11.43
2022-12-20T09:25:02.747Z,11.40
2022-12-20T09:26:02.820Z,11.36
2022-12-20T09:27:02.722Z,11.37
2022-12-20T09:28:02.708Z,11.35
2022-12-20T09:29:03.031Z,11.32
2022-12-20T09:30:02.701Z,11.28
2022-12-20T09:31:02.740Z,11.24
2022-12-20T09:32:02.719Z,11.22
2022-12-20T09:33:07.562Z,11.19
2022-12-20T09:34:03.670Z,11.19
2022-12-20T09:35:02.625Z,11.21
2022-12-20T09:36:03.408Z,11.18
2022-12-20T09:37:02.625Z,11.18
2022-12-20T09:38:02.708Z,11.17
2022-12-20T09:39:02.587Z,11.15
2022-12-20T09:40:02.592Z,11.17
2022-12-20T09:41:02.567Z,11.21
2022-12-20T09:42:02.606Z,11.21
2022-12-20T09:43:02.541Z,11.18
2022-12-20T09:44:02.556Z,11.14
2022-12-20T09:45:02.525Z,11.09
2022-12-20T09:46:02.579Z,11.06
2022-12-20T09:47:09.763Z,11.04
2022-12-20T09:48:03.493Z,11.00
2022-12-20T09:49:02.480Z,10.97
2022-12-20T09:50:02.471Z,10.97
2022-12-20T09:51:02.475Z,10.96
2022-12-20T09:52:02.555Z,10.92
2022-12-20T09:53:02.463Z,10.92
2022-12-20T09:54:02.509Z,10.92
2022-12-20T09:55:02.424Z,10.92
2022-12-20T09:56:02.449Z,10.91
2022-12-20T09:57:02.420Z,10.89
2022-12-20T09:58:02.398Z,10.88
2022-12-20T09:59:02.358Z,10.85
2022-12-20T10:00:02.402Z,10.82
2022-12-20T10:01:02.335Z,10.82
2022-12-20T10:02:26.484Z,10.82
2022-12-20T10:03:09.965Z,10.82
2022-12-20T10:04:03.567Z,10.84
2022-12-20T10:05:02.413Z,10.86
2022-12-20T10:06:02.691Z,10.88
2022-12-20T10:07:02.310Z,10.86
2022-12-20T10:08:02.273Z,10.88
2022-12-20T10:09:02.269Z,10.88
2022-12-20T10:10:02.315Z,10.88
2022-12-20T10:11:02.232Z,10.86
2022-12-20T10:12:02.313Z,10.89
2022-12-20T10:13:02.235Z,10.91
2022-12-20T10:14:02.340Z,10.91
2022-12-20T10:15:02.189Z,10.92
2022-12-20T10:16:02.399Z,10.92
2022-12-20T10:17:02.181Z,10.91
2022-12-20T10:18:02.157Z,10.89
2022-12-20T10:19:02.134Z,10.89
2022-12-20T10:20:02.142Z,10.91
2022-12-20T10:21:02.132Z,10.89
2022-12-20T10:22:02.272Z,10.89
2022-12-20T10:23:02.098Z,10.86
2022-12-20T10:24:02.095Z,10.86
2022-12-20T10:25:02.101Z,10.85
2022-12-20T10:26:02.080Z,10.84
2022-12-20T10:27:02.069Z,10.84
2022-12-20T10:28:02.086Z,10.84
2022-12-20T10:29:02.023Z,10.84
2022-12-20T10:30:02.108Z,10.82
2022-12-20T10:31:02.083Z,10.81
2022-12-20T10:32:02.019Z,10.78
2022-12-20T10:33:01.987Z,10.78
2022-12-20T10:34:01.967Z,10.78
2022-12-20T10:35:01.973Z,10.74
2022-12-20T10:36:01.953Z,10.74
2022-12-20T10:37:01.946Z,10.74
2022-12-20T10:38:09.840Z,10.74
2022-12-20T10:39:02.915Z,10.78
2022-12-20T10:40:07.259Z,10.82
2022-12-20T10:42:02.919Z,10.86
2022-12-20T10:43:01.891Z,10.89
2022-12-20T10:44:01.867Z,10.92
2022-12-20T10:45:01.882Z,10.96
2022-12-20T10:46:02.108Z,11.00
2022-12-20T10:47:02.125Z,11.00
2022-12-20T10:48:01.824Z,11.04
2022-12-20T10:49:01.808Z,11.09
2022-12-20T10:50:01.786Z,11.10
2022-12-20T10:51:01.795Z,11.17
2022-12-20T10:52:01.859Z,11.21
2022-12-20T10:53:01.790Z,11.24
2022-12-20T10:54:01.894Z,11.27
2022-12-20T10:55:01.767Z,11.32
2022-12-20T10:56:01.777Z,11.36
2022-12-20T10:57:01.928Z,11.36
2022-12-20T10:58:01.718Z,11.37
2022-12-20T10:59:01.724Z,11.36
2022-12-20T11:00:01.725Z,11.39
2022-12-20T11:01:01.704Z,11.42
2022-12-20T11:02:01.774Z,11.40
2022-12-20T11:03:01.730Z,11.40
2022-12-20T11:04:01.735Z,11.40
2022-12-20T11:05:01.652Z,11.40
2022-12-20T11:06:01.672Z,11.40
2022-12-20T11:07:01.615Z,11.40
2022-12-20T11:08:34.674Z,11.39
2022-12-20T11:09:02.584Z,11.37
2022-12-20T11:10:01.579Z,11.36
2022-12-20T11:11:01.567Z,11.36
2022-12-20T11:12:01.553Z,11.35
2022-12-20T11:13:01.580Z,11.33
2022-12-20T11:14:01.576Z,11.29
2022-12-20T11:15:01.535Z,11.29
2022-12-20T11:16:01.716Z,11.28
2022-12-20T11:17:01.635Z,11.28
2022-12-20T11:18:01.492Z,11.29
2022-12-20T11:19:01.495Z,11.29
2022-12-20T11:20:01.467Z,11.28
2022-12-20T11:21:01.458Z,11.29
2022-12-20T11:22:01.445Z,11.33
2022-12-20T11:23:01.475Z,11.33
2022-12-20T11:24:01.416Z,11.32
2022-12-20T11:25:01.417Z,11.33
2022-12-20T11:26:01.406Z,11.35
2022-12-20T11:27:01.495Z,11.36
2022-12-20T11:28:01.396Z,11.39
2022-12-20T11:29:01.375Z,11.42
2022-12-20T11:30:01.363Z,11.46
2022-12-20T11:31:01.405Z,11.42
2022-12-20T11:32:01.383Z,11.43
2022-12-20T11:33:01.339Z,11.42
2022-12-20T11:34:01.305Z,11.39
2022-12-20T11:35:01.330Z,11.39
2022-12-20T11:36:01.288Z,11.37
2022-12-20T11:37:01.286Z,11.36
2022-12-20T11:38:07.245Z,11.32
2022-12-20T11:39:02.285Z,11.27
2022-12-20T11:40:01.309Z,11.27
2022-12-20T11:41:01.244Z,11.25
2022-12-20T11:42:01.220Z,11.24
2022-12-20T11:43:01.257Z,11.22
2022-12-20T11:44:24.522Z,11.21
2022-12-20T11:45:09.284Z,11.21
2022-12-20T11:46:02.234Z,11.19
2022-12-20T11:47:01.350Z,11.22
2022-12-20T11:48:01.191Z,11.28
2022-12-20T11:49:01.155Z,11.32
2022-12-20T11:50:01.153Z,11.33
2022-12-20T11:51:01.145Z,11.32
2022-12-20T11:52:01.105Z,11.35
2022-12-20T11:53:01.112Z,11.37
2022-12-20T11:54:01.133Z,11.37
2022-12-20T11:55:01.087Z,11.39
2022-12-20T11:56:01.080Z,11.46
2022-12-20T11:57:01.061Z,11.65
2022-12-20T11:59:02.044Z,11.96
2022-12-20T12:00:01.041Z,12.04
2022-12-20T12:01:01.015Z,12.10
2022-12-20T12:02:01.122Z,12.10
2022-12-20T12:03:01.182Z,12.12
2022-12-20T12:04:00.983Z,12.16
2022-12-20T12:05:01.034Z,12.34
2022-12-20T12:06:00.955Z,12.46
2022-12-20T12:07:00.953Z,12.56
2022-12-20T12:08:00.951Z,12.62
2022-12-20T12:09:00.926Z,12.67
2022-12-20T12:10:00.919Z,12.67
2022-12-20T12:11:00.927Z,12.67
2022-12-20T12:12:09.385Z,12.68
2022-12-20T12:53:52.186Z,11.91
2022-12-20T12:54:51.693Z,11.91
2022-12-20T12:55:52.138Z,11.86
2022-12-20T12:56:51.945Z,11.85
2022-12-20T12:57:51.641Z,11.80
2022-12-20T12:58:51.643Z,11.79
2022-12-20T12:59:51.667Z,11.75
2022-12-20T13:00:51.791Z,11.72
2022-12-20T13:01:51.933Z,11.70
2022-12-20T13:02:51.802Z,11.67
2022-12-20T13:03:51.686Z,11.75
2022-12-20T13:04:51.609Z,11.78
2022-12-20T13:05:51.562Z,11.78
2022-12-20T13:06:51.551Z,11.75
2022-12-20T13:07:51.568Z,11.73
2022-12-20T13:08:51.531Z,11.70
2022-12-20T13:09:51.505Z,11.69
2022-12-20T13:10:51.560Z,11.72
2022-12-20T13:12:00.053Z,11.72
2022-12-20T13:12:52.612Z,11.98
2022-12-20T13:13:51.531Z,12.16
2022-12-20T13:14:51.462Z,12.16
2022-12-20T13:15:51.453Z,12.13
2022-12-20T13:17:52.567Z,12.24
2022-12-20T13:18:51.452Z,12.38
2022-12-20T13:19:51.488Z,12.59
2022-12-20T13:20:51.414Z,12.68
2022-12-20T13:21:51.394Z,12.95
2022-12-20T13:22:51.393Z,13.11
2022-12-20T13:23:51.367Z,13.15
2022-12-20T13:24:51.384Z,13.44
2022-12-20T13:25:51.336Z,13.49
2022-12-20T13:26:51.337Z,13.42
2022-12-20T13:27:51.390Z,13.36
2022-12-20T13:28:51.356Z,13.32
2022-12-20T13:29:51.300Z,13.25
2022-12-20T13:30:51.371Z,13.19
2022-12-20T13:31:54.556Z,13.15
2022-12-20T13:32:51.261Z,13.11
2022-12-20T13:33:51.248Z,13.03
2022-12-20T13:34:51.269Z,12.96
2022-12-20T13:35:51.370Z,12.86
2022-12-20T13:36:51.217Z,12.86
2022-12-20T13:37:54.815Z,12.79